createdAt,value
2023-01-09T00:02:23.227Z,5.91
2023-01-09T00:04:49.957Z,5.86
2023-01-09T00:07:16.539Z,5.84
2023-01-09T00:09:43.279Z,5.81
2023-01-09T00:12:09.822Z,5.81
2023-01-09T00:14:36.460Z,5.78
2023-01-09T00:17:03.151Z,5.78
2023-01-09T00:19:29.831Z,5.79
2023-01-09T00:21:56.384Z,5.83
2023-01-09T00:24:23.208Z,5.80
2023-01-09T00:26:49.844Z,5.83
2023-01-09T00:29:16.248Z,5.83
2023-01-09T00:31:43.176Z,5.84
2023-01-09T00:34:09.975Z,5.87
2023-01-09T00:36:36.289Z,5.86
2023-01-09T00:39:02.843Z,5.90
2023-01-09T00:41:34.416Z,5.91
2023-01-09T00:44:10.179Z,5.96
2023-01-09T00:46:40.347Z,5.99
2023-01-09T00:49:08.755Z,6.09
2023-01-09T00:51:35.700Z,6.12
2023-01-09T00:54:03.519Z,6.13
2023-01-09T00:56:29.866Z,6.16
2023-01-09T00:58:56.384Z,6.15
2023-01-09T01:01:23.182Z,6.19
2023-01-09T01:03:49.639Z,6.20
2023-01-09T01:06:16.163Z,6.21
2023-01-09T01:08:42.785Z,6.24
2023-01-09T01:11:10.352Z,6.24
2023-01-09T01:13:38.100Z,6.24
2023-01-09T01:16:07.205Z,6.27
2023-01-09T01:18:33.954Z,6.27
2023-01-09T01:21:00.679Z,6.24
2023-01-09T01:23:27.343Z,6.21
2023-01-09T01:25:53.900Z,6.21
2023-01-09T01:28:20.230Z,6.20
2023-01-09T01:30:46.756Z,6.17
2023-01-09T01:33:13.351Z,6.15
2023-01-09T01:35:39.643Z,6.12
2023-01-09T01:38:06.081Z,6.10
2023-01-09T01:40:32.753Z,6.11
2023-01-09T01:42:59.114Z,6.10
2023-01-09T01:45:27.908Z,6.06
2023-01-09T01:48:13.425Z,6.06
2023-01-09T01:50:50.301Z,6.04
2023-01-09T01:53:21.666Z,6.05
2023-01-09T01:56:10.140Z,6.04
2023-01-09T01:59:09.670Z,6.01
2023-01-09T02:01:38.890Z,6.00
2023-01-09T02:04:05.564Z,5.98
2023-01-09T02:06:33.982Z,5.96
2023-01-09T02:09:03.256Z,5.93
2023-01-09T02:11:29.654Z,5.98
2023-01-09T02:13:56.551Z,5.99
2023-01-09T02:16:50.712Z,6.00
2023-01-09T02:19:37.027Z,5.97
2023-01-09T02:22:19.162Z,5.97
2023-01-09T02:25:12.206Z,5.97
2023-01-09T02:28:20.322Z,5.91
2023-01-09T02:30:54.940Z,5.90
2023-01-09T02:33:30.691Z,5.90
2023-01-09T02:36:19.350Z,5.91
2023-01-09T02:38:48.785Z,5.89
2023-01-09T02:41:25.258Z,5.87
2023-01-09T02:44:18.500Z,5.84
2023-01-09T02:46:45.008Z,5.86
2023-01-09T02:49:13.598Z,5.90
2023-01-09T02:51:53.139Z,5.88
2023-01-09T02:54:41.616Z,5.91
2023-01-09T02:57:22.080Z,5.90
2023-01-09T03:00:29.448Z,5.90
2023-01-09T03:03:18.747Z,5.89
2023-01-09T03:05:53.636Z,5.88
2023-01-09T03:08:25.007Z,5.90
2023-01-09T03:11:05.576Z,5.92
2023-01-09T03:14:03.442Z,5.95
2023-01-09T03:16:35.447Z,5.96
2023-01-09T03:19:04.800Z,5.98
2023-01-09T03:21:32.933Z,5.98
2023-01-09T03:24:01.825Z,6.01
2023-01-09T03:26:29.147Z,6.09
2023-01-09T03:28:56.167Z,6.05
2023-01-09T03:31:22.916Z,6.04
2023-01-09T03:33:49.477Z,6.04
2023-01-09T03:36:17.689Z,6.04
2023-01-09T03:38:45.721Z,6.00
2023-01-09T03:41:12.145Z,5.99
2023-01-09T03:43:38.801Z,5.96
2023-01-09T03:46:05.370Z,5.97
2023-01-09T03:48:31.877Z,5.96
2023-01-09T03:50:58.805Z,5.96
2023-01-09T03:53:27.145Z,5.94
2023-01-09T03:55:56.281Z,5.94
2023-01-09T03:58:24.767Z,5.94
2023-01-09T04:00:52.524Z,5.94
2023-01-09T04:03:20.484Z,5.94
2023-01-09T04:05:48.427Z,5.97
2023-01-09T04:08:14.996Z,5.96
2023-01-09T04:10:45.431Z,5.99
2023-01-09T04:13:12.272Z,6.00
2023-01-09T04:15:38.900Z,6.01
2023-01-09T04:18:05.638Z,5.99
2023-01-09T04:20:33.057Z,6.03
2023-01-09T04:22:59.625Z,6.02
2023-01-09T04:25:27.284Z,6.03
2023-01-09T04:27:53.837Z,6.01
2023-01-09T04:30:20.889Z,6.07
2023-01-09T04:32:47.525Z,6.10
2023-01-09T04:35:14.000Z,6.17
2023-01-09T04:37:40.322Z,6.18
2023-01-09T04:40:07.695Z,6.22
2023-01-09T04:42:34.288Z,6.25
2023-01-09T04:45:00.583Z,6.24
2023-01-09T04:47:27.051Z,6.25
2023-01-09T04:49:53.461Z,6.20
2023-01-09T04:52:19.798Z,6.17
2023-01-09T04:54:46.140Z,6.16
2023-01-09T04:57:12.500Z,6.13
2023-01-09T04:59:38.895Z,6.01
2023-01-09T05:02:05.748Z,5.88
2023-01-09T05:04:32.613Z,5.98
2023-01-09T05:06:59.653Z,5.95
2023-01-09T05:09:26.503Z,5.89
2023-01-09T05:11:53.188Z,5.76
2023-01-09T05:14:20.082Z,5.78
2023-01-09T05:16:46.830Z,5.75
2023-01-09T05:19:13.757Z,5.70
2023-01-09T05:21:40.177Z,5.68
2023-01-09T05:24:06.810Z,5.60
2023-01-09T05:26:33.556Z,5.55
2023-01-09T05:29:00.550Z,5.50
2023-01-09T05:31:30.590Z,5.43
2023-01-09T05:33:57.195Z,5.35
2023-01-09T05:36:23.734Z,5.34
2023-01-09T05:38:50.159Z,5.29
2023-01-09T05:41:16.691Z,5.26
2023-01-09T05:43:43.104Z,5.22
2023-01-09T05:46:09.596Z,5.17
2023-01-09T05:48:36.276Z,5.14
2023-01-09T05:51:02.873Z,5.10
2023-01-09T05:53:29.276Z,5.08
2023-01-09T05:55:55.645Z,5.02
2023-01-09T05:58:21.947Z,4.93
2023-01-09T06:00:48.332Z,4.91
2023-01-09T06:03:15.010Z,4.84
2023-01-09T06:05:41.397Z,4.81
2023-01-09T06:08:07.815Z,4.69
2023-01-09T06:10:34.127Z,4.68
2023-01-09T06:13:00.859Z,4.66
2023-01-09T06:15:27.688Z,4.62
2023-01-09T06:17:54.109Z,4.58
2023-01-09T06:20:20.720Z,4.47
2023-01-09T06:22:47.705Z,4.34
2023-01-09T06:25:14.197Z,4.29
2023-01-09T06:27:40.952Z,4.28
2023-01-09T06:30:08.316Z,4.23
2023-01-09T06:32:35.271Z,4.20
2023-01-09T06:35:01.912Z,4.19
2023-01-09T06:37:28.721Z,4.16
2023-01-09T06:39:55.385Z,4.14
2023-01-09T06:42:22.018Z,4.20
2023-01-09T06:44:48.754Z,4.28
2023-01-09T06:47:15.614Z,4.26
2023-01-09T06:49:42.036Z,4.37
2023-01-09T06:52:08.415Z,4.35
2023-01-09T06:54:35.326Z,4.34
2023-01-09T06:57:02.574Z,4.31
2023-01-09T06:59:29.327Z,4.26
2023-01-09T07:01:56.416Z,4.30
2023-01-09T07:04:23.240Z,4.30
2023-01-09T07:06:50.119Z,4.26
2023-01-09T07:09:16.799Z,4.22
2023-01-09T07:11:43.589Z,4.18
2023-01-09T07:14:10.078Z,4.22
2023-01-09T07:16:36.603Z,4.25
2023-01-09T07:19:03.126Z,4.30
2023-01-09T07:21:32.578Z,4.33
2023-01-09T07:23:59.306Z,4.37
2023-01-09T07:26:25.820Z,4.37
2023-01-09T07:28:52.168Z,4.44
2023-01-09T07:31:18.741Z,4.50
2023-01-09T07:33:45.419Z,4.52
2023-01-09T07:36:12.176Z,4.55
2023-01-09T07:38:38.594Z,4.58
2023-01-09T07:41:05.565Z,4.55
2023-01-09T07:43:32.194Z,4.60
2023-01-09T07:45:58.985Z,4.70
2023-01-09T07:48:25.957Z,4.72
2023-01-09T07:50:52.717Z,4.77
2023-01-09T07:53:19.571Z,4.76
2023-01-09T07:55:46.297Z,4.81
2023-01-09T07:58:13.153Z,4.78
2023-01-09T08:00:40.192Z,4.81
2023-01-09T08:03:06.687Z,4.80
2023-01-09T08:05:33.360Z,4.80
2023-01-09T08:07:59.956Z,4.76
2023-01-09T08:10:26.330Z,4.76
2023-01-09T08:12:52.794Z,4.76
2023-01-09T08:15:19.182Z,4.73
2023-01-09T08:17:46.166Z,4.69
2023-01-09T08:20:15.009Z,4.74
2023-01-09T08:22:43.025Z,4.70
2023-01-09T08:25:12.388Z,4.67
2023-01-09T08:27:39.520Z,4.65
2023-01-09T08:30:06.679Z,4.68
2023-01-09T08:32:33.034Z,4.64
2023-01-09T08:34:59.676Z,4.69
2023-01-09T08:37:26.154Z,4.74
2023-01-09T08:39:52.563Z,4.81
2023-01-09T08:42:19.354Z,4.77
2023-01-09T08:44:45.727Z,4.73
2023-01-09T08:47:15.516Z,4.72
2023-01-09T08:49:41.879Z,4.83
2023-01-09T08:52:08.282Z,4.81
2023-01-09T08:54:35.182Z,4.92
2023-01-09T08:57:01.535Z,4.89
2023-01-09T08:59:28.186Z,5.03
2023-01-09T09:01:54.566Z,5.18
2023-01-09T09:04:21.126Z,5.53
2023-01-09T09:06:47.486Z,5.71
2023-01-09T09:09:14.138Z,5.84
2023-01-09T09:11:41.014Z,6.02
2023-01-09T09:14:07.764Z,6.07
2023-01-09T09:16:34.127Z,6.07
2023-01-09T09:19:00.484Z,6.51
2023-01-09T09:21:26.931Z,6.64
2023-01-09T09:23:53.243Z,6.52
2023-01-09T09:26:19.921Z,6.91
2023-01-09T09:28:46.240Z,7.25
2023-01-09T09:31:12.614Z,7.37
2023-01-09T09:33:38.952Z,7.28
2023-01-09T09:36:05.914Z,7.71
2023-01-09T09:38:32.291Z,7.97
2023-01-09T09:41:23.670Z,8.18
2023-01-09T09:44:07.375Z,8.19
2023-01-09T09:46:54.981Z,8.29
2023-01-09T09:49:34.591Z,8.43
2023-01-09T09:52:22.931Z,8.51
2023-01-09T09:54:50.334Z,8.48
2023-01-09T09:57:22.393Z,8.82
2023-01-09T09:59:49.488Z,9.26
2023-01-09T10:02:27.695Z,9.32
2023-01-09T10:05:05.332Z,9.10
2023-01-09T10:07:40.539Z,9.38
2023-01-09T10:10:16.076Z,9.66
2023-01-09T10:12:50.510Z,9.27
2023-01-09T10:15:25.802Z,9.61
2023-01-09T10:18:19.959Z,9.30
2023-01-09T10:21:06.867Z,9.54
2023-01-09T10:23:55.208Z,9.43
2023-01-09T10:26:29.488Z,9.60
2023-01-09T10:29:13.681Z,9.58
2023-01-09T10:32:19.205Z,8.93
2023-01-09T10:35:19.041Z,8.52
2023-01-09T10:37:48.207Z,8.70
2023-01-09T10:40:25.563Z,9.17
2023-01-09T10:43:04.564Z,8.41
2023-01-09T10:45:41.662Z,8.28
2023-01-09T10:48:49.583Z,8.22
2023-01-09T10:51:39.907Z,8.28
2023-01-09T10:54:22.451Z,8.46
2023-01-09T10:57:07.242Z,8.09
2023-01-09T10:59:33.591Z,8.23
2023-01-09T11:02:02.182Z,8.18
2023-01-09T11:04:37.719Z,8.01
2023-01-09T11:07:17.701Z,8.05
2023-01-09T11:10:05.394Z,7.95
2023-01-09T11:12:33.943Z,7.99
2023-01-09T11:15:15.557Z,8.09
2023-01-09T11:17:43.451Z,7.79
2023-01-09T11:20:30.499Z,7.80
2023-01-09T11:22:58.780Z,7.85
2023-01-09T11:25:28.291Z,7.91
2023-01-09T11:28:03.799Z,7.73
2023-01-09T11:30:31.547Z,7.73
2023-01-09T11:32:59.005Z,7.61
2023-01-09T11:35:33.968Z,7.60
2023-01-09T11:38:11.342Z,7.71
2023-01-09T11:40:49.111Z,7.57
2023-01-09T11:43:18.300Z,7.63
2023-01-09T11:46:00.250Z,7.77
2023-01-09T11:48:59.076Z,7.76
2023-01-09T11:51:31.419Z,8.40
2023-01-09T11:54:13.398Z,9.02
2023-01-09T11:56:40.701Z,8.68
2023-01-09T11:59:18.648Z,8.87
2023-01-09T12:02:18.225Z,8.83
2023-01-09T12:05:00.220Z,8.83
2023-01-09T12:07:48.316Z,8.79
2023-01-09T12:10:25.392Z,8.61
2023-01-09T12:13:07.253Z,8.73
2023-01-09T12:16:03.497Z,8.49
2023-01-09T12:18:51.005Z,8.42
2023-01-09T12:21:24.145Z,8.39
2023-01-09T12:23:57.384Z,8.48
2023-01-09T12:26:45.560Z,8.46
2023-01-09T12:29:29.620Z,8.48
2023-01-09T12:32:27.860Z,8.27
2023-01-09T12:35:12.962Z,8.31
2023-01-09T12:37:48.817Z,8.26
2023-01-09T12:40:15.169Z,8.10
2023-01-09T12:42:53.476Z,7.89
2023-01-09T12:45:46.087Z,7.84
2023-01-09T12:48:36.573Z,7.80
2023-01-09T12:51:18.219Z,7.87
2023-01-09T12:53:52.031Z,7.93
2023-01-09T12:56:29.396Z,7.99
2023-01-09T12:59:01.547Z,8.07
2023-01-09T13:01:32.710Z,8.08
2023-01-09T13:04:36.454Z,7.93
2023-01-09T13:07:14.129Z,7.96
2023-01-09T13:09:56.549Z,8.03
2023-01-09T13:12:25.502Z,8.13
2023-01-09T13:15:00.277Z,8.01
2023-01-09T13:17:36.252Z,8.04
2023-01-09T13:20:04.871Z,7.95
2023-01-09T13:22:31.461Z,7.93
2023-01-09T13:25:50.155Z,7.62
2023-01-09T13:28:24.921Z,7.58
2023-01-09T13:31:13.001Z,7.51
2023-01-09T13:33:42.860Z,7.37
2023-01-09T13:36:22.854Z,7.32
2023-01-09T13:38:49.972Z,7.26
2023-01-09T13:41:18.727Z,7.20
2023-01-09T13:44:28.150Z,7.10
2023-01-09T13:46:58.480Z,6.86
2023-01-09T13:49:43.233Z,6.85
2023-01-09T13:52:28.518Z,6.74
2023-01-09T13:54:54.893Z,6.74
2023-01-09T13:57:25.924Z,6.80
2023-01-09T13:59:52.533Z,6.92
2023-01-09T14:02:34.003Z,7.49
2023-01-09T14:05:01.748Z,7.82
2023-01-09T14:07:33.495Z,7.76
2023-01-09T14:10:02.988Z,7.80
2023-01-09T14:12:32.801Z,7.73
2023-01-09T14:15:01.238Z,7.51
2023-01-09T14:17:33.850Z,7.32
2023-01-09T14:20:04.762Z,7.23
2023-01-09T14:22:42.309Z,7.24
2023-01-09T14:25:24.302Z,7.20
2023-01-09T14:27:59.785Z,7.34
2023-01-09T14:30:26.119Z,7.20
2023-01-09T14:33:02.664Z,7.09
2023-01-09T14:35:38.768Z,7.12
2023-01-09T14:38:17.502Z,7.10
2023-01-09T14:41:00.128Z,7.20
2023-01-09T14:43:38.265Z,7.27
2023-01-09T14:46:12.133Z,7.26
2023-01-09T14:48:50.728Z,7.26
2023-01-09T14:51:20.059Z,7.14
2023-01-09T14:53:49.573Z,6.99
2023-01-09T14:56:28.188Z,6.86
2023-01-09T14:59:05.454Z,6.71
2023-01-09T15:01:35.692Z,6.61
2023-01-09T15:04:06.251Z,6.54
2023-01-09T15:06:41.442Z,6.42
2023-01-09T15:09:22.978Z,6.33
2023-01-09T15:11:50.329Z,6.21
2023-01-09T15:14:32.172Z,6.17
2023-01-09T15:17:00.179Z,6.17
2023-01-09T15:19:27.167Z,6.20
2023-01-09T15:22:04.953Z,6.19
2023-01-09T15:24:33.944Z,6.16
2023-01-09T15:27:03.504Z,6.16
2023-01-09T15:29:29.939Z,6.15
2023-01-09T15:32:07.880Z,6.12
2023-01-09T15:34:34.825Z,6.05
2023-01-09T15:37:02.049Z,5.97
2023-01-09T15:39:34.755Z,5.90
2023-01-09T15:42:02.181Z,5.91
2023-01-09T15:44:29.132Z,5.93
2023-01-09T15:47:00.644Z,5.88
2023-01-09T15:49:27.200Z,5.82
2023-01-09T15:51:54.275Z,5.76
2023-01-09T15:54:29.200Z,5.79
2023-01-09T15:57:27.529Z,5.77
2023-01-09T15:59:55.381Z,5.81
2023-01-09T16:02:23.941Z,5.75
2023-01-09T16:04:54.775Z,5.70
2023-01-09T16:07:21.419Z,5.65
2023-01-09T16:09:49.744Z,5.66
2023-01-09T16:12:25.709Z,5.64
2023-01-09T16:14:55.529Z,5.63
2023-01-09T16:17:22.819Z,5.52
2023-01-09T16:19:52.251Z,5.54
2023-01-09T16:22:52.225Z,5.54
2023-01-09T16:25:32.069Z,5.52
2023-01-09T16:28:27.591Z,5.48
2023-01-09T16:30:56.694Z,5.49
2023-01-09T16:33:26.113Z,5.49
2023-01-09T16:35:53.298Z,5.47
2023-01-09T16:38:20.627Z,5.47
2023-01-09T16:41:02.574Z,5.40
2023-01-09T16:43:29.000Z,5.33
2023-01-09T16:45:55.579Z,5.23
2023-01-09T16:48:22.494Z,5.13
2023-01-09T16:50:48.807Z,5.03
2023-01-09T16:53:23.272Z,4.98
2023-01-09T16:55:50.712Z,4.96
2023-01-09T16:58:31.873Z,4.97
2023-01-09T17:00:58.979Z,5.00
2023-01-09T17:03:25.610Z,5.00
2023-01-09T17:05:58.708Z,4.99
2023-01-09T17:08:28.879Z,4.98
2023-01-09T17:10:56.580Z,5.02
2023-01-09T17:13:23.843Z,4.97
2023-01-09T17:15:52.088Z,4.99
2023-01-09T17:18:21.015Z,5.01
2023-01-09T17:20:50.496Z,5.02
2023-01-09T17:23:17.213Z,4.97
2023-01-09T17:25:44.433Z,5.01
2023-01-09T17:28:18.641Z,5.02
2023-01-09T17:30:45.242Z,4.98
2023-01-09T17:33:18.462Z,4.92
2023-01-09T17:35:45.371Z,4.84
2023-01-09T17:38:16.177Z,4.83
2023-01-09T17:40:43.371Z,4.79
2023-01-09T17:43:09.736Z,4.71
2023-01-09T17:45:37.867Z,4.73
2023-01-09T17:48:06.599Z,4.70
2023-01-09T17:50:33.088Z,4.70
2023-01-09T17:52:59.499Z,4.68
2023-01-09T17:55:26.144Z,4.70
2023-01-09T17:57:52.625Z,4.70
2023-01-09T18:00:31.618Z,4.70
2023-01-09T18:02:58.191Z,4.67
2023-01-09T18:05:25.297Z,4.68
2023-01-09T18:07:52.100Z,4.70
2023-01-09T18:10:21.902Z,4.74
2023-01-09T18:12:48.895Z,4.74
2023-01-09T18:15:15.607Z,4.75
2023-01-09T18:17:42.081Z,4.74
2023-01-09T18:20:09.726Z,4.71
2023-01-09T18:22:36.817Z,4.72
2023-01-09T18:25:03.958Z,4.74
2023-01-09T18:27:30.380Z,4.74
2023-01-09T18:29:56.741Z,4.77
2023-01-09T18:32:24.463Z,4.75
2023-01-09T18:34:50.797Z,4.75
2023-01-09T18:37:17.264Z,4.75
2023-01-09T18:39:44.037Z,4.74
2023-01-09T18:42:10.850Z,4.73
2023-01-09T18:44:37.246Z,4.71
2023-01-09T18:47:03.607Z,4.68
2023-01-09T18:49:30.076Z,4.69
2023-01-09T18:51:56.518Z,4.60
2023-01-09T18:54:23.056Z,4.53
2023-01-09T18:56:52.567Z,4.59
2023-01-09T18:59:19.086Z,4.51
2023-01-09T19:01:45.415Z,4.49
2023-01-09T19:04:12.013Z,4.49
2023-01-09T19:06:38.350Z,4.46
2023-01-09T19:09:05.061Z,4.51
2023-01-09T19:11:31.355Z,4.51
2023-01-09T19:13:57.797Z,4.47
2023-01-09T19:16:24.372Z,4.40
2023-01-09T19:18:50.777Z,4.40
2023-01-09T19:21:22.480Z,4.44
2023-01-09T19:23:49.564Z,4.40
2023-01-09T19:26:23.444Z,4.44
2023-01-09T19:28:50.898Z,4.40
2023-01-09T19:31:17.836Z,4.33
2023-01-09T19:33:44.778Z,4.34
2023-01-09T19:36:11.368Z,4.36
2023-01-09T19:38:37.713Z,4.36
2023-01-09T19:41:22.272Z,4.33
2023-01-09T19:43:49.063Z,4.28
2023-01-09T19:46:18.538Z,4.30
2023-01-09T19:48:46.712Z,4.28
2023-01-09T19:51:15.269Z,4.26
2023-01-09T19:53:42.803Z,4.28
2023-01-09T19:56:18.101Z,4.24
2023-01-09T19:58:51.004Z,4.24
2023-01-09T20:01:20.368Z,4.19
2023-01-09T20:03:48.698Z,4.15
2023-01-09T20:06:18.594Z,4.21
2023-01-09T20:08:53.664Z,4.22
2023-01-09T20:11:20.841Z,4.18
2023-01-09T20:13:47.289Z,4.21
2023-01-09T20:16:19.629Z,4.22
2023-01-09T20:18:46.759Z,4.19
2023-01-09T20:21:20.957Z,4.18
2023-01-09T20:23:47.519Z,4.16
2023-01-09T20:26:14.661Z,4.20
2023-01-09T20:28:41.077Z,4.20
2023-01-09T20:31:11.270Z,4.20
2023-01-09T20:33:38.340Z,4.20
2023-01-09T20:36:05.334Z,4.21
2023-01-09T20:38:32.614Z,4.19
2023-01-09T20:41:13.863Z,4.19
2023-01-09T20:43:40.271Z,4.19
2023-01-09T20:46:07.465Z,4.18
2023-01-09T20:48:34.060Z,4.24
2023-01-09T20:51:05.475Z,4.25
2023-01-09T20:53:32.096Z,4.24
2023-01-09T20:56:07.154Z,4.21
2023-01-09T20:58:34.247Z,4.19
2023-01-09T21:01:09.903Z,4.21
2023-01-09T21:03:40.814Z,4.23
2023-01-09T21:06:07.880Z,4.20
2023-01-09T21:08:35.142Z,4.21
2023-01-09T21:11:01.995Z,4.23
2023-01-09T21:13:33.315Z,4.22
2023-01-09T21:16:09.897Z,4.25
2023-01-09T21:18:37.623Z,4.27
2023-01-09T21:21:06.189Z,4.25
2023-01-09T21:23:33.399Z,4.25
2023-01-09T21:26:00.107Z,4.23
2023-01-09T21:28:27.319Z,4.22
2023-01-09T21:30:53.835Z,4.17
2023-01-09T21:33:21.667Z,4.15
2023-01-09T21:35:55.547Z,4.10
2023-01-09T21:38:22.892Z,4.10
2023-01-09T21:40:50.666Z,4.21
2023-01-09T21:43:35.100Z,4.19
2023-01-09T21:46:01.641Z,4.20
2023-01-09T21:48:28.182Z,4.26
2023-01-09T21:50:54.597Z,4.23
2023-01-09T21:53:20.978Z,4.25
2023-01-09T21:55:48.177Z,4.23
2023-01-09T21:58:14.493Z,4.21
2023-01-09T22:00:40.823Z,4.23
2023-01-09T22:03:07.189Z,4.18
2023-01-09T22:05:36.466Z,4.21
2023-01-09T22:08:02.799Z,4.15
2023-01-09T22:10:29.423Z,4.09
2023-01-09T22:12:55.862Z,4.08
2023-01-09T22:15:22.358Z,4.11
2023-01-09T22:17:49.409Z,4.15
2023-01-09T22:20:15.896Z,4.10
2023-01-09T22:22:42.295Z,4.09
2023-01-09T22:25:09.139Z,4.06
2023-01-09T22:27:35.541Z,4.05
2023-01-09T22:30:02.367Z,4.13
2023-01-09T22:32:28.815Z,4.14
2023-01-09T22:34:55.342Z,4.12
2023-01-09T22:37:21.698Z,4.10
2023-01-09T22:39:48.005Z,4.16
2023-01-09T22:42:14.307Z,4.18
2023-01-09T22:44:40.782Z,4.24
2023-01-09T22:47:07.141Z,4.28
2023-01-09T22:49:45.935Z,4.29
2023-01-09T22:52:18.688Z,4.28
2023-01-09T22:54:45.037Z,4.31
2023-01-09T22:57:11.428Z,4.32
2023-01-09T22:59:37.712Z,4.33
2023-01-09T23:02:04.295Z,4.32
2023-01-09T23:04:31.054Z,4.29
2023-01-09T23:06:57.494Z,4.31
2023-01-09T23:09:24.544Z,4.30
2023-01-09T23:11:50.909Z,4.33
2023-01-09T23:14:17.634Z,4.31
2023-01-09T23:16:44.088Z,4.32
2023-01-09T23:19:10.838Z,4.30
2023-01-09T23:21:37.364Z,4.29
2023-01-09T23:24:04.013Z,4.18
2023-01-09T23:26:30.443Z,4.18
2023-01-09T23:28:56.741Z,4.22
2023-01-09T23:31:23.073Z,4.21
2023-01-09T23:33:49.405Z,4.27
2023-01-09T23:36:15.838Z,4.28
2023-01-09T23:38:42.281Z,4.25
2023-01-09T23:41:08.614Z,4.26
2023-01-09T23:43:35.235Z,4.32
2023-01-09T23:46:01.637Z,4.28
2023-01-09T23:48:28.041Z,4.29
2023-01-09T23:50:55.098Z,4.29
2023-01-09T23:53:22.840Z,4.26
2023-01-09T23:55:52.159Z,4.21
2023-01-09T23:58:18.612Z,4.22
